Terminal Aerodrome Forecast
Issued by NWS Charleston, WV

Current Version | Previous Version | Graphics & Text | Print | Product List | Glossary On
Versions: 1 2 3 4 5 6 7 8 9 10 11 12 13 14 15 16 17 18 19 20 21 22 23 24
000
FTUS41 KRLX 021126
TAFPKB
TAF
KPKB 021126Z 0212/0312 24006KT P6SM OVC035
      TEMPO 0212/0215 BKN025
     FM021500 25009G15KT P6SM OVC025
     FM022200 26006KT P6SM BKN040
     FM031100 28004KT P6SM SCT040=

USA.gov is the U.S. government's official web portal to all federal, state and local government web resources and services.